sensor_id;sensor_type;location;lat;lon;timestamp;P1;durP1;ratioP1;P2;durP2;ratioP2
13185;SDS011;6658;53.080;7.428;2022-11-15T00:01:46;12.87;;;11.13;;
13185;SDS011;6658;53.080;7.428;2022-11-15T00:04:12;13.83;;;11.30;;
13185;SDS011;6658;53.080;7.428;2022-11-15T00:06:38;13.00;;;11.50;;
13185;SDS011;6658;53.080;7.428;2022-11-15T00:09:03;12.53;;;11.00;;
13185;SDS011;6658;53.080;7.428;2022-11-15T00:11:29;12.13;;;10.77;;
13185;SDS011;6658;53.080;7.428;2022-11-15T00:13:55;14.20;;;11.17;;
13185;SDS011;6658;53.080;7.428;2022-11-15T00:16:22;12.43;;;11.00;;
13185;SDS011;6658;53.080;7.428;2022-11-15T00:18:48;12.90;;;11.47;;
13185;SDS011;6658;53.080;7.428;2022-11-15T00:21:13;14.30;;;11.87;;
13185;SDS011;6658;53.080;7.428;2022-11-15T00:23:40;13.67;;;11.77;;
13185;SDS011;6658;53.080;7.428;2022-11-15T00:26:06;13.67;;;11.70;;
13185;SDS011;6658;53.080;7.428;2022-11-15T00:28:32;13.50;;;11.33;;
13185;SDS011;6658;53.080;7.428;2022-11-15T00:31:01;15.10;;;11.47;;
13185;SDS011;6658;53.080;7.428;2022-11-15T00:33:31;15.23;;;12.50;;
13185;SDS011;6658;53.080;7.428;2022-11-15T00:36:05;15.70;;;12.63;;
13185;SDS011;6658;53.080;7.428;2022-11-15T00:38:34;13.93;;;12.20;;
13185;SDS011;6658;53.080;7.428;2022-11-15T00:41:01;15.27;;;12.33;;
13185;SDS011;6658;53.080;7.428;2022-11-15T00:43:28;14.53;;;12.40;;
13185;SDS011;6658;53.080;7.428;2022-11-15T00:45:53;16.23;;;12.87;;
13185;SDS011;6658;53.080;7.428;2022-11-15T00:48:19;16.27;;;12.87;;
13185;SDS011;6658;53.080;7.428;2022-11-15T00:50:45;16.67;;;13.23;;
13185;SDS011;6658;53.080;7.428;2022-11-15T00:53:10;16.17;;;13.13;;
13185;SDS011;6658;53.080;7.428;2022-11-15T00:55:36;15.67;;;13.03;;
13185;SDS011;6658;53.080;7.428;2022-11-15T00:58:02;15.63;;;13.37;;
13185;SDS011;6658;53.080;7.428;2022-11-15T01:00:28;16.63;;;13.63;;
13185;SDS011;6658;53.080;7.428;2022-11-15T01:02:53;17.77;;;13.63;;
13185;SDS011;6658;53.080;7.428;2022-11-15T01:05:19;17.33;;;13.90;;
13185;SDS011;6658;53.080;7.428;2022-11-15T01:07:45;16.27;;;13.10;;
13185;SDS011;6658;53.080;7.428;2022-11-15T01:10:11;19.20;;;14.37;;
13185;SDS011;6658;53.080;7.428;2022-11-15T01:12:37;22.00;;;15.17;;
13185;SDS011;6658;53.080;7.428;2022-11-15T01:15:03;17.43;;;14.30;;
13185;SDS011;6658;53.080;7.428;2022-11-15T01:17:30;17.73;;;13.97;;
13185;SDS011;6658;53.080;7.428;2022-11-15T01:19:56;18.33;;;14.50;;
13185;SDS011;6658;53.080;7.428;2022-11-15T01:22:22;18.90;;;14.30;;
13185;SDS011;6658;53.080;7.428;2022-11-15T01:24:51;18.47;;;14.50;;
13185;SDS011;6658;53.080;7.428;2022-11-15T01:27:16;18.47;;;14.43;;
13185;SDS011;6658;53.080;7.428;2022-11-15T01:29:42;19.53;;;14.80;;
13185;SDS011;6658;53.080;7.428;2022-11-15T01:32:08;19.20;;;14.23;;
13185;SDS011;6658;53.080;7.428;2022-11-15T01:34:33;20.00;;;15.13;;
13185;SDS011;6658;53.080;7.428;2022-11-15T01:36:59;18.77;;;15.23;;
13185;SDS011;6658;53.080;7.428;2022-11-15T01:39:25;20.80;;;15.30;;
13185;SDS011;6658;53.080;7.428;2022-11-15T01:41:51;19.43;;;15.27;;
13185;SDS011;6658;53.080;7.428;2022-11-15T01:47:16;16.70;;;13.80;;
13185;SDS011;6658;53.080;7.428;2022-11-15T01:50:04;16.13;;;13.53;;
13185;SDS011;6658;53.080;7.428;2022-11-15T01:52:33;15.97;;;13.13;;
13185;SDS011;6658;53.080;7.428;2022-11-15T01:55:08;18.77;;;13.90;;
13185;SDS011;6658;53.080;7.428;2022-11-15T01:57:41;15.10;;;12.93;;
13185;SDS011;6658;53.080;7.428;2022-11-15T02:00:09;17.60;;;13.43;;
13185;SDS011;6658;53.080;7.428;2022-11-15T02:02:35;14.23;;;12.67;;
13185;SDS011;6658;53.080;7.428;2022-11-15T02:05:02;17.57;;;13.77;;
13185;SDS011;6658;53.080;7.428;2022-11-15T02:07:28;14.77;;;12.93;;
13185;SDS011;6658;53.080;7.428;2022-11-15T02:09:56;16.10;;;12.47;;
13185;SDS011;6658;53.080;7.428;2022-11-15T02:12:27;14.93;;;12.93;;
13185;SDS011;6658;53.080;7.428;2022-11-15T02:14:53;13.87;;;12.23;;
13185;SDS011;6658;53.080;7.428;2022-11-15T02:17:26;15.50;;;13.03;;
13185;SDS011;6658;53.080;7.428;2022-11-15T02:36:44;13.23;;;11.30;;
13185;SDS011;6658;53.080;7.428;2022-11-15T02:42:32;14.93;;;12.70;;
13185;SDS011;6658;53.080;7.428;2022-11-15T02:45:24;12.90;;;11.53;;
13185;SDS011;6658;53.080;7.428;2022-11-15T02:47:54;13.03;;;11.63;;
13185;SDS011;6658;53.080;7.428;2022-11-15T02:50:25;12.70;;;11.27;;
13185;SDS011;6658;53.080;7.428;2022-11-15T02:52:53;14.83;;;11.80;;
13185;SDS011;6658;53.080;7.428;2022-11-15T02:55:27;12.83;;;10.60;;
13185;SDS011;6658;53.080;7.428;2022-11-15T03:00:44;13.17;;;11.10;;
13185;SDS011;6658;53.080;7.428;2022-11-15T03:08:52;12.37;;;10.13;;
13185;SDS011;6658;53.080;7.428;2022-11-15T03:11:26;13.27;;;10.40;;
13185;SDS011;6658;53.080;7.428;2022-11-15T03:13:58;11.93;;;10.53;;
13185;SDS011;6658;53.080;7.428;2022-11-15T03:18:58;14.37;;;11.10;;
13185;SDS011;6658;53.080;7.428;2022-11-15T03:21:28;12.50;;;10.03;;
13185;SDS011;6658;53.080;7.428;2022-11-15T03:23:55;12.33;;;10.33;;
13185;SDS011;6658;53.080;7.428;2022-11-15T03:26:25;12.47;;;10.40;;
13185;SDS011;6658;53.080;7.428;2022-11-15T03:28:57;12.10;;;10.17;;
13185;SDS011;6658;53.080;7.428;2022-11-15T03:31:28;13.43;;;9.90;;
13185;SDS011;6658;53.080;7.428;2022-11-15T03:34:15;11.23;;;9.93;;
13185;SDS011;6658;53.080;7.428;2022-11-15T03:37:02;13.73;;;10.37;;
13185;SDS011;6658;53.080;7.428;2022-11-15T03:39:29;13.13;;;9.47;;
13185;SDS011;6658;53.080;7.428;2022-11-15T03:47:38;13.57;;;10.67;;
13185;SDS011;6658;53.080;7.428;2022-11-15T03:50:12;12.33;;;10.63;;
13185;SDS011;6658;53.080;7.428;2022-11-15T03:52:40;12.20;;;10.20;;
13185;SDS011;6658;53.080;7.428;2022-11-15T03:55:07;15.27;;;10.07;;
13185;SDS011;6658;53.080;7.428;2022-11-15T03:57:35;12.60;;;9.93;;
13185;SDS011;6658;53.080;7.428;2022-11-15T04:00:01;16.37;;;10.87;;
13185;SDS011;6658;53.080;7.428;2022-11-15T04:02:28;12.17;;;10.13;;
13185;SDS011;6658;53.080;7.428;2022-11-15T04:04:53;13.27;;;10.27;;
13185;SDS011;6658;53.080;7.428;2022-11-15T04:07:19;12.53;;;10.77;;
13185;SDS011;6658;53.080;7.428;2022-11-15T04:09:45;13.43;;;10.73;;
13185;SDS011;6658;53.080;7.428;2022-11-15T04:12:36;14.37;;;11.23;;
13185;SDS011;6658;53.080;7.428;2022-11-15T04:15:08;13.57;;;10.80;;
13185;SDS011;6658;53.080;7.428;2022-11-15T04:17:39;14.27;;;10.97;;
13185;SDS011;6658;53.080;7.428;2022-11-15T04:20:12;12.53;;;10.70;;
13185;SDS011;6658;53.080;7.428;2022-11-15T04:23:05;14.73;;;11.13;;
13185;SDS011;6658;53.080;7.428;2022-11-15T04:25:50;13.80;;;11.03;;
13185;SDS011;6658;53.080;7.428;2022-11-15T04:28:19;14.20;;;11.17;;
13185;SDS011;6658;53.080;7.428;2022-11-15T04:30:45;13.90;;;11.40;;
13185;SDS011;6658;53.080;7.428;2022-11-15T04:33:10;14.73;;;10.60;;
13185;SDS011;6658;53.080;7.428;2022-11-15T04:35:36;15.27;;;11.17;;
13185;SDS011;6658;53.080;7.428;2022-11-15T04:38:03;12.60;;;10.63;;
13185;SDS011;6658;53.080;7.428;2022-11-15T04:40:29;15.37;;;12.27;;
13185;SDS011;6658;53.080;7.428;2022-11-15T04:42:55;13.53;;;11.67;;
13185;SDS011;6658;53.080;7.428;2022-11-15T04:45:21;13.87;;;11.30;;
13185;SDS011;6658;53.080;7.428;2022-11-15T04:47:47;14.60;;;11.20;;
13185;SDS011;6658;53.080;7.428;2022-11-15T04:50:13;13.10;;;11.50;;
13185;SDS011;6658;53.080;7.428;2022-11-15T04:52:40;13.80;;;11.13;;
13185;SDS011;6658;53.080;7.428;2022-11-15T04:55:15;15.03;;;10.97;;
13185;SDS011;6658;53.080;7.428;2022-11-15T04:57:40;13.50;;;11.00;;
13185;SDS011;6658;53.080;7.428;2022-11-15T05:00:08;15.17;;;10.80;;
13185;SDS011;6658;53.080;7.428;2022-11-15T05:02:36;14.73;;;11.27;;
13185;SDS011;6658;53.080;7.428;2022-11-15T05:05:21;16.17;;;11.67;;
13185;SDS011;6658;53.080;7.428;2022-11-15T05:07:48;15.03;;;11.47;;
13185;SDS011;6658;53.080;7.428;2022-11-15T05:10:14;15.87;;;11.23;;
13185;SDS011;6658;53.080;7.428;2022-11-15T05:12:39;18.73;;;11.40;;
13185;SDS011;6658;53.080;7.428;2022-11-15T05:15:05;19.47;;;12.43;;
13185;SDS011;6658;53.080;7.428;2022-11-15T05:17:31;16.67;;;12.30;;
13185;SDS011;6658;53.080;7.428;2022-11-15T05:19:57;15.43;;;12.10;;
13185;SDS011;6658;53.080;7.428;2022-11-15T05:22:23;15.50;;;11.87;;
13185;SDS011;6658;53.080;7.428;2022-11-15T05:24:48;21.23;;;12.70;;
13185;SDS011;6658;53.080;7.428;2022-11-15T05:27:14;17.07;;;11.93;;
13185;SDS011;6658;53.080;7.428;2022-11-15T05:29:40;19.03;;;12.53;;
13185;SDS011;6658;53.080;7.428;2022-11-15T05:32:06;16.20;;;12.97;;
13185;SDS011;6658;53.080;7.428;2022-11-15T05:34:33;15.80;;;11.83;;
13185;SDS011;6658;53.080;7.428;2022-11-15T05:36:59;18.83;;;12.60;;
13185;SDS011;6658;53.080;7.428;2022-11-15T05:39:25;17.80;;;12.70;;
13185;SDS011;6658;53.080;7.428;2022-11-15T05:41:52;15.33;;;11.77;;
13185;SDS011;6658;53.080;7.428;2022-11-15T05:44:30;17.30;;;12.07;;
13185;SDS011;6658;53.080;7.428;2022-11-15T05:46:56;18.10;;;12.00;;
13185;SDS011;6658;53.080;7.428;2022-11-15T05:49:23;17.40;;;12.17;;
13185;SDS011;6658;53.080;7.428;2022-11-15T05:51:53;18.67;;;12.57;;
13185;SDS011;6658;53.080;7.428;2022-11-15T05:54:20;21.30;;;12.03;;
13185;SDS011;6658;53.080;7.428;2022-11-15T05:56:48;17.90;;;12.67;;
13185;SDS011;6658;53.080;7.428;2022-11-15T05:59:14;18.83;;;11.77;;
13185;SDS011;6658;53.080;7.428;2022-11-15T06:01:40;15.77;;;12.10;;
13185;SDS011;6658;53.080;7.428;2022-11-15T06:04:06;15.73;;;12.43;;
13185;SDS011;6658;53.080;7.428;2022-11-15T06:06:31;16.03;;;12.03;;
13185;SDS011;6658;53.080;7.428;2022-11-15T06:08:57;18.27;;;12.40;;
13185;SDS011;6658;53.080;7.428;2022-11-15T06:11:23;16.63;;;12.03;;
13185;SDS011;6658;53.080;7.428;2022-11-15T06:13:48;17.03;;;12.07;;
13185;SDS011;6658;53.080;7.428;2022-11-15T06:16:14;21.20;;;11.93;;
13185;SDS011;6658;53.080;7.428;2022-11-15T06:18:40;19.63;;;12.27;;
13185;SDS011;6658;53.080;7.428;2022-11-15T06:21:05;18.27;;;11.27;;
13185;SDS011;6658;53.080;7.428;2022-11-15T06:23:32;14.57;;;11.73;;
13185;SDS011;6658;53.080;7.428;2022-11-15T06:25:58;17.87;;;11.63;;
13185;SDS011;6658;53.080;7.428;2022-11-15T06:28:27;17.53;;;11.63;;
13185;SDS011;6658;53.080;7.428;2022-11-15T06:31:02;17.10;;;10.43;;
13185;SDS011;6658;53.080;7.428;2022-11-15T06:33:31;19.70;;;13.00;;
13185;SDS011;6658;53.080;7.428;2022-11-15T06:36:03;17.93;;;12.33;;
13185;SDS011;6658;53.080;7.428;2022-11-15T06:38:30;18.00;;;11.30;;
13185;SDS011;6658;53.080;7.428;2022-11-15T06:41:03;14.73;;;10.37;;
13185;SDS011;6658;53.080;7.428;2022-11-15T06:43:30;14.70;;;11.13;;
13185;SDS011;6658;53.080;7.428;2022-11-15T06:46:00;17.93;;;10.77;;
13185;SDS011;6658;53.080;7.428;2022-11-15T06:48:27;16.80;;;10.70;;
13185;SDS011;6658;53.080;7.428;2022-11-15T06:50:54;18.37;;;11.67;;
13185;SDS011;6658;53.080;7.428;2022-11-15T06:53:22;14.83;;;10.53;;
13185;SDS011;6658;53.080;7.428;2022-11-15T06:55:48;16.13;;;10.60;;
13185;SDS011;6658;53.080;7.428;2022-11-15T06:58:14;13.40;;;10.87;;
13185;SDS011;6658;53.080;7.428;2022-11-15T07:00:40;15.80;;;10.43;;
13185;SDS011;6658;53.080;7.428;2022-11-15T07:03:06;15.67;;;10.67;;
13185;SDS011;6658;53.080;7.428;2022-11-15T07:05:32;11.77;;;9.53;;
13185;SDS011;6658;53.080;7.428;2022-11-15T07:07:58;15.40;;;9.80;;
13185;SDS011;6658;53.080;7.428;2022-11-15T07:10:24;13.13;;;9.63;;
13185;SDS011;6658;53.080;7.428;2022-11-15T07:12:51;12.17;;;9.70;;
13185;SDS011;6658;53.080;7.428;2022-11-15T07:15:18;10.77;;;9.40;;
13185;SDS011;6658;53.080;7.428;2022-11-15T07:17:44;9.17;;;8.30;;
13185;SDS011;6658;53.080;7.428;2022-11-15T07:20:10;11.90;;;8.93;;
13185;SDS011;6658;53.080;7.428;2022-11-15T07:22:38;10.03;;;8.63;;
13185;SDS011;6658;53.080;7.428;2022-11-15T07:25:04;9.10;;;8.23;;
13185;SDS011;6658;53.080;7.428;2022-11-15T07:27:30;10.17;;;8.20;;
13185;SDS011;6658;53.080;7.428;2022-11-15T07:29:56;14.67;;;8.67;;
13185;SDS011;6658;53.080;7.428;2022-11-15T07:32:21;8.87;;;7.93;;
13185;SDS011;6658;53.080;7.428;2022-11-15T07:34:47;10.00;;;8.43;;
13185;SDS011;6658;53.080;7.428;2022-11-15T07:37:13;10.33;;;8.10;;
13185;SDS011;6658;53.080;7.428;2022-11-15T07:39:38;10.67;;;7.60;;
13185;SDS011;6658;53.080;7.428;2022-11-15T07:42:04;8.70;;;7.80;;
13185;SDS011;6658;53.080;7.428;2022-11-15T07:44:48;8.67;;;7.77;;
13185;SDS011;6658;53.080;7.428;2022-11-15T07:47:14;8.17;;;7.07;;
13185;SDS011;6658;53.080;7.428;2022-11-15T07:49:40;13.53;;;7.97;;
13185;SDS011;6658;53.080;7.428;2022-11-15T07:52:05;8.93;;;8.00;;
13185;SDS011;6658;53.080;7.428;2022-11-15T07:54:31;9.90;;;7.93;;
13185;SDS011;6658;53.080;7.428;2022-11-15T07:56:57;9.50;;;7.70;;
13185;SDS011;6658;53.080;7.428;2022-11-15T07:59:22;9.17;;;7.97;;
13185;SDS011;6658;53.080;7.428;2022-11-15T08:01:48;9.67;;;7.53;;
13185;SDS011;6658;53.080;7.428;2022-11-15T08:04:14;9.33;;;7.70;;
13185;SDS011;6658;53.080;7.428;2022-11-15T08:06:40;9.23;;;8.20;;
13185;SDS011;6658;53.080;7.428;2022-11-15T08:09:06;8.97;;;7.73;;
13185;SDS011;6658;53.080;7.428;2022-11-15T08:11:31;10.43;;;7.80;;
13185;SDS011;6658;53.080;7.428;2022-11-15T08:13:58;8.33;;;7.53;;
13185;SDS011;6658;53.080;7.428;2022-11-15T08:16:24;8.83;;;7.43;;
13185;SDS011;6658;53.080;7.428;2022-11-15T08:18:49;8.90;;;8.00;;
13185;SDS011;6658;53.080;7.428;2022-11-15T08:21:17;9.70;;;7.93;;
13185;SDS011;6658;53.080;7.428;2022-11-15T08:23:44;8.10;;;7.30;;
13185;SDS011;6658;53.080;7.428;2022-11-15T08:26:10;7.80;;;7.00;;
13185;SDS011;6658;53.080;7.428;2022-11-15T08:28:36;7.63;;;6.80;;
13185;SDS011;6658;53.080;7.428;2022-11-15T08:31:02;8.07;;;7.27;;
13185;SDS011;6658;53.080;7.428;2022-11-15T08:33:29;7.90;;;7.10;;
13185;SDS011;6658;53.080;7.428;2022-11-15T08:35:59;9.13;;;7.93;;
13185;SDS011;6658;53.080;7.428;2022-11-15T08:38:25;8.20;;;6.53;;
13185;SDS011;6658;53.080;7.428;2022-11-15T08:40:54;8.53;;;6.83;;
13185;SDS011;6658;53.080;7.428;2022-11-15T08:43:25;8.50;;;6.10;;
13185;SDS011;6658;53.080;7.428;2022-11-15T08:45:51;7.47;;;6.77;;
13185;SDS011;6658;53.080;7.428;2022-11-15T08:48:20;9.03;;;6.33;;
13185;SDS011;6658;53.080;7.428;2022-11-15T08:50:45;7.53;;;6.83;;
13185;SDS011;6658;53.080;7.428;2022-11-15T08:53:12;7.03;;;6.33;;
13185;SDS011;6658;53.080;7.428;2022-11-15T08:55:38;6.70;;;5.97;;
13185;SDS011;6658;53.080;7.428;2022-11-15T08:58:05;6.70;;;6.10;;
13185;SDS011;6658;53.080;7.428;2022-11-15T09:00:31;7.77;;;6.57;;
13185;SDS011;6658;53.080;7.428;2022-11-15T09:02:57;9.67;;;5.87;;
13185;SDS011;6658;53.080;7.428;2022-11-15T09:05:24;8.07;;;7.27;;
13185;SDS011;6658;53.080;7.428;2022-11-15T09:07:53;6.40;;;5.77;;
13185;SDS011;6658;53.080;7.428;2022-11-15T09:10:20;6.47;;;5.73;;
13185;SDS011;6658;53.080;7.428;2022-11-15T09:12:45;6.17;;;5.57;;
13185;SDS011;6658;53.080;7.428;2022-11-15T09:15:13;5.80;;;5.20;;
13185;SDS011;6658;53.080;7.428;2022-11-15T09:17:40;7.30;;;6.60;;
13185;SDS011;6658;53.080;7.428;2022-11-15T09:20:06;8.50;;;6.70;;
13185;SDS011;6658;53.080;7.428;2022-11-15T09:22:33;6.73;;;5.93;;
13185;SDS011;6658;53.080;7.428;2022-11-15T09:24:59;9.97;;;6.67;;
13185;SDS011;6658;53.080;7.428;2022-11-15T09:27:28;7.30;;;6.60;;
13185;SDS011;6658;53.080;7.428;2022-11-15T09:29:54;8.60;;;6.63;;
13185;SDS011;6658;53.080;7.428;2022-11-15T09:32:20;6.83;;;6.20;;
13185;SDS011;6658;53.080;7.428;2022-11-15T09:34:47;7.47;;;5.77;;
13185;SDS011;6658;53.080;7.428;2022-11-15T09:37:13;6.40;;;5.80;;
13185;SDS011;6658;53.080;7.428;2022-11-15T09:39:39;6.53;;;5.80;;
13185;SDS011;6658;53.080;7.428;2022-11-15T09:42:12;8.43;;;5.90;;
13185;SDS011;6658;53.080;7.428;2022-11-15T09:50:49;6.57;;;5.97;;
13185;SDS011;6658;53.080;7.428;2022-11-15T09:55:53;6.90;;;6.20;;
13185;SDS011;6658;53.080;7.428;2022-11-15T10:01:22;7.80;;;7.00;;
13185;SDS011;6658;53.080;7.428;2022-11-15T10:04:09;8.83;;;6.33;;
13185;SDS011;6658;53.080;7.428;2022-11-15T10:06:36;7.80;;;7.10;;
13185;SDS011;6658;53.080;7.428;2022-11-15T10:11:37;8.60;;;6.93;;
13185;SDS011;6658;53.080;7.428;2022-11-15T10:14:09;10.03;;;6.93;;
13185;SDS011;6658;53.080;7.428;2022-11-15T10:19:28;8.87;;;7.83;;
13185;SDS011;6658;53.080;7.428;2022-11-15T10:24:31;8.60;;;7.70;;
13185;SDS011;6658;53.080;7.428;2022-11-15T10:27:00;8.10;;;7.30;;
13185;SDS011;6658;53.080;7.428;2022-11-15T10:29:26;7.97;;;7.17;;
13185;SDS011;6658;53.080;7.428;2022-11-15T10:31:51;9.37;;;7.73;;
13185;SDS011;6658;53.080;7.428;2022-11-15T10:34:22;8.20;;;7.17;;
13185;SDS011;6658;53.080;7.428;2022-11-15T10:36:56;8.60;;;7.80;;
13185;SDS011;6658;53.080;7.428;2022-11-15T10:39:23;9.13;;;8.23;;
13185;SDS011;6658;53.080;7.428;2022-11-15T10:41:49;8.40;;;6.93;;
13185;SDS011;6658;53.080;7.428;2022-11-15T10:44:31;8.77;;;7.97;;
13185;SDS011;6658;53.080;7.428;2022-11-15T10:47:19;9.80;;;8.13;;
13185;SDS011;6658;53.080;7.428;2022-11-15T10:50:01;8.23;;;7.43;;
13185;SDS011;6658;53.080;7.428;2022-11-15T10:52:47;8.33;;;7.53;;
13185;SDS011;6658;53.080;7.428;2022-11-15T10:57:47;8.63;;;7.83;;
13185;SDS011;6658;53.080;7.428;2022-11-15T11:07:59;7.73;;;7.03;;
13185;SDS011;6658;53.080;7.428;2022-11-15T11:10:29;7.60;;;6.90;;
13185;SDS011;6658;53.080;7.428;2022-11-15T11:12:55;6.80;;;6.20;;
13185;SDS011;6658;53.080;7.428;2022-11-15T11:15:36;7.10;;;6.50;;
13185;SDS011;6658;53.080;7.428;2022-11-15T11:18:07;7.07;;;6.20;;
13185;SDS011;6658;53.080;7.428;2022-11-15T11:20:46;6.67;;;6.07;;
13185;SDS011;6658;53.080;7.428;2022-11-15T11:26:39;7.80;;;7.10;;
13185;SDS011;6658;53.080;7.428;2022-11-15T11:37:20;7.77;;;7.07;;
13185;SDS011;6658;53.080;7.428;2022-11-15T11:42:58;7.53;;;6.80;;
13185;SDS011;6658;53.080;7.428;2022-11-15T11:48:11;7.57;;;6.87;;
13185;SDS011;6658;53.080;7.428;2022-11-15T11:50:48;6.53;;;5.93;;
13185;SDS011;6658;53.080;7.428;2022-11-15T11:53:15;6.20;;;5.60;;
13185;SDS011;6658;53.080;7.428;2022-11-15T11:55:51;6.90;;;6.30;;
13185;SDS011;6658;53.080;7.428;2022-11-15T11:58:20;5.60;;;5.17;;
13185;SDS011;6658;53.080;7.428;2022-11-15T12:00:57;6.00;;;5.40;;
13185;SDS011;6658;53.080;7.428;2022-11-15T12:03:48;6.00;;;5.50;;
13185;SDS011;6658;53.080;7.428;2022-11-15T12:12:09;5.13;;;4.63;;
13185;SDS011;6658;53.080;7.428;2022-11-15T12:17:44;4.60;;;4.20;;
13185;SDS011;6658;53.080;7.428;2022-11-15T12:20:16;4.97;;;4.47;;
13185;SDS011;6658;53.080;7.428;2022-11-15T12:28:08;4.77;;;4.20;;
13185;SDS011;6658;53.080;7.428;2022-11-15T12:31:01;3.90;;;3.60;;
13185;SDS011;6658;53.080;7.428;2022-11-15T12:38:52;3.23;;;2.93;;
13185;SDS011;6658;53.080;7.428;2022-11-15T12:41:20;1.80;;;1.70;;
13185;SDS011;6658;53.080;7.428;2022-11-15T12:43:48;1.63;;;1.30;;
13185;SDS011;6658;53.080;7.428;2022-11-15T12:49:11;2.50;;;0.80;;
13185;SDS011;6658;53.080;7.428;2022-11-15T13:07:56;2.07;;;1.33;;
13185;SDS011;6658;53.080;7.428;2022-11-15T13:15:33;2.43;;;1.10;;
13185;SDS011;6658;53.080;7.428;2022-11-15T13:20:58;2.30;;;1.10;;
13185;SDS011;6658;53.080;7.428;2022-11-15T13:23:24;1.77;;;1.10;;
13185;SDS011;6658;53.080;7.428;2022-11-15T13:25:58;1.60;;;1.20;;
13185;SDS011;6658;53.080;7.428;2022-11-15T13:31:41;1.10;;;1.00;;
13185;SDS011;6658;53.080;7.428;2022-11-15T13:34:48;1.33;;;1.03;;
13185;SDS011;6658;53.080;7.428;2022-11-15T13:36:57;2.23;;;1.47;;
13185;SDS011;6658;53.080;7.428;2022-11-15T13:41:52;5.63;;;3.30;;
13185;SDS011;6658;53.080;7.428;2022-11-15T13:44:19;2.13;;;1.87;;
13185;SDS011;6658;53.080;7.428;2022-11-15T13:46:47;3.03;;;1.40;;
13185;SDS011;6658;53.080;7.428;2022-11-15T13:49:13;2.00;;;1.67;;
13185;SDS011;6658;53.080;7.428;2022-11-15T13:56:48;2.63;;;2.10;;
13185;SDS011;6658;53.080;7.428;2022-11-15T13:59:27;3.03;;;2.60;;
13185;SDS011;6658;53.080;7.428;2022-11-15T14:02:03;2.50;;;1.57;;
13185;SDS011;6658;53.080;7.428;2022-11-15T14:04:50;2.07;;;1.27;;
13185;SDS011;6658;53.080;7.428;2022-11-15T14:07:20;1.70;;;1.50;;
13185;SDS011;6658;53.080;7.428;2022-11-15T14:09:48;1.23;;;1.13;;
13185;SDS011;6658;53.080;7.428;2022-11-15T14:14:51;1.47;;;1.20;;
13185;SDS011;6658;53.080;7.428;2022-11-15T14:17:36;1.50;;;1.20;;
13185;SDS011;6658;53.080;7.428;2022-11-15T14:20:19;3.20;;;1.80;;
13185;SDS011;6658;53.080;7.428;2022-11-15T14:23:17;1.30;;;0.90;;
13185;SDS011;6658;53.080;7.428;2022-11-15T14:25:51;1.43;;;1.30;;
13185;SDS011;6658;53.080;7.428;2022-11-15T14:30:47;1.47;;;1.17;;
13185;SDS011;6658;53.080;7.428;2022-11-15T14:35:54;1.33;;;1.23;;
13185;SDS011;6658;53.080;7.428;2022-11-15T14:38:22;1.30;;;1.20;;
13185;SDS011;6658;53.080;7.428;2022-11-15T14:40:49;1.37;;;1.23;;
13185;SDS011;6658;53.080;7.428;2022-11-15T14:43:15;2.27;;;1.33;;
13185;SDS011;6658;53.080;7.428;2022-11-15T14:45:41;2.07;;;1.70;;
13185;SDS011;6658;53.080;7.428;2022-11-15T14:48:07;1.70;;;1.40;;
13185;SDS011;6658;53.080;7.428;2022-11-15T14:50:33;1.47;;;1.20;;
13185;SDS011;6658;53.080;7.428;2022-11-15T14:53:00;1.67;;;1.43;;
13185;SDS011;6658;53.080;7.428;2022-11-15T14:55:26;1.60;;;1.30;;
13185;SDS011;6658;53.080;7.428;2022-11-15T14:57:56;1.33;;;1.23;;
13185;SDS011;6658;53.080;7.428;2022-11-15T15:00:22;2.03;;;1.50;;
13185;SDS011;6658;53.080;7.428;2022-11-15T15:02:49;2.23;;;1.87;;
13185;SDS011;6658;53.080;7.428;2022-11-15T15:05:22;2.33;;;1.70;;
13185;SDS011;6658;53.080;7.428;2022-11-15T15:07:51;1.70;;;1.60;;
13185;SDS011;6658;53.080;7.428;2022-11-15T15:10:18;1.70;;;1.60;;
13185;SDS011;6658;53.080;7.428;2022-11-15T15:12:44;2.57;;;1.60;;
13185;SDS011;6658;53.080;7.428;2022-11-15T15:15:15;3.43;;;2.00;;
13185;SDS011;6658;53.080;7.428;2022-11-15T15:17:46;1.83;;;1.73;;
13185;SDS011;6658;53.080;7.428;2022-11-15T15:20:12;6.93;;;6.23;;
13185;SDS011;6658;53.080;7.428;2022-11-15T15:22:37;4.13;;;3.00;;
13185;SDS011;6658;53.080;7.428;2022-11-15T15:25:10;2.90;;;2.60;;
13185;SDS011;6658;53.080;7.428;2022-11-15T15:28:08;3.30;;;3.00;;
13185;SDS011;6658;53.080;7.428;2022-11-15T15:30:34;2.00;;;1.90;;
13185;SDS011;6658;53.080;7.428;2022-11-15T15:32:59;2.40;;;2.20;;
13185;SDS011;6658;53.080;7.428;2022-11-15T15:35:28;2.20;;;1.70;;
13185;SDS011;6658;53.080;7.428;2022-11-15T15:37:55;5.30;;;2.70;;
13185;SDS011;6658;53.080;7.428;2022-11-15T15:40:22;2.23;;;1.90;;
13185;SDS011;6658;53.080;7.428;2022-11-15T15:42:49;2.30;;;1.93;;
13185;SDS011;6658;53.080;7.428;2022-11-15T15:45:15;2.70;;;2.50;;
13185;SDS011;6658;53.080;7.428;2022-11-15T15:47:42;2.27;;;1.90;;
13185;SDS011;6658;53.080;7.428;2022-11-15T15:50:14;2.40;;;2.20;;
13185;SDS011;6658;53.080;7.428;2022-11-15T15:52:52;4.20;;;2.00;;
13185;SDS011;6658;53.080;7.428;2022-11-15T15:55:20;2.53;;;2.33;;
13185;SDS011;6658;53.080;7.428;2022-11-15T15:57:46;5.17;;;2.77;;
13185;SDS011;6658;53.080;7.428;2022-11-15T16:00:12;2.60;;;2.40;;
13185;SDS011;6658;53.080;7.428;2022-11-15T16:02:39;4.07;;;3.17;;
13185;SDS011;6658;53.080;7.428;2022-11-15T16:05:05;2.87;;;2.67;;
13185;SDS011;6658;53.080;7.428;2022-11-15T16:07:32;2.73;;;2.53;;
13185;SDS011;6658;53.080;7.428;2022-11-15T16:09:57;2.60;;;2.40;;
13185;SDS011;6658;53.080;7.428;2022-11-15T16:12:33;3.10;;;2.60;;
13185;SDS011;6658;53.080;7.428;2022-11-15T16:14:59;3.43;;;3.13;;
13185;SDS011;6658;53.080;7.428;2022-11-15T16:17:28;3.50;;;3.20;;
13185;SDS011;6658;53.080;7.428;2022-11-15T16:19:58;4.20;;;3.33;;
13185;SDS011;6658;53.080;7.428;2022-11-15T16:22:24;4.30;;;3.90;;
13185;SDS011;6658;53.080;7.428;2022-11-15T16:24:50;4.23;;;3.60;;
13185;SDS011;6658;53.080;7.428;2022-11-15T16:27:17;4.43;;;3.50;;
13185;SDS011;6658;53.080;7.428;2022-11-15T16:29:44;3.70;;;3.40;;
13185;SDS011;6658;53.080;7.428;2022-11-15T16:32:11;3.50;;;3.17;;
13185;SDS011;6658;53.080;7.428;2022-11-15T16:34:37;3.70;;;3.40;;
13185;SDS011;6658;53.080;7.428;2022-11-15T16:37:03;5.23;;;4.83;;
13185;SDS011;6658;53.080;7.428;2022-11-15T16:39:29;3.60;;;3.30;;
13185;SDS011;6658;53.080;7.428;2022-11-15T16:41:56;3.67;;;3.33;;
13185;SDS011;6658;53.080;7.428;2022-11-15T16:44:23;3.80;;;3.50;;
13185;SDS011;6658;53.080;7.428;2022-11-15T16:46:50;4.90;;;3.60;;
13185;SDS011;6658;53.080;7.428;2022-11-15T16:49:16;4.33;;;3.60;;
13185;SDS011;6658;53.080;7.428;2022-11-15T16:51:47;4.50;;;3.27;;
13185;SDS011;6658;53.080;7.428;2022-11-15T16:54:14;3.80;;;3.40;;
13185;SDS011;6658;53.080;7.428;2022-11-15T16:56:40;4.63;;;3.43;;
13185;SDS011;6658;53.080;7.428;2022-11-15T16:59:06;3.83;;;3.20;;
13185;SDS011;6658;53.080;7.428;2022-11-15T17:01:38;3.30;;;3.00;;
13185;SDS011;6658;53.080;7.428;2022-11-15T17:04:10;4.07;;;3.17;;
13185;SDS011;6658;53.080;7.428;2022-11-15T17:06:40;3.50;;;3.07;;
13185;SDS011;6658;53.080;7.428;2022-11-15T17:09:14;4.50;;;3.33;;
13185;SDS011;6658;53.080;7.428;2022-11-15T17:11:48;4.70;;;4.30;;
13185;SDS011;6658;53.080;7.428;2022-11-15T17:14:14;5.07;;;4.37;;
13185;SDS011;6658;53.080;7.428;2022-11-15T17:16:41;6.47;;;5.87;;
13185;SDS011;6658;53.080;7.428;2022-11-15T17:19:15;3.57;;;3.27;;
13185;SDS011;6658;53.080;7.428;2022-11-15T17:21:44;3.10;;;2.80;;
13185;SDS011;6658;53.080;7.428;2022-11-15T17:24:10;3.83;;;3.50;;
13185;SDS011;6658;53.080;7.428;2022-11-15T17:26:36;4.87;;;4.37;;
13185;SDS011;6658;53.080;7.428;2022-11-15T17:29:03;5.17;;;4.03;;
13185;SDS011;6658;53.080;7.428;2022-11-15T17:31:32;4.83;;;3.30;;
13185;SDS011;6658;53.080;7.428;2022-11-15T17:34:01;3.17;;;2.93;;